createdAt,value
2023-02-21T00:01:44.552Z,100119.44
2023-02-21T00:04:29.852Z,100121.25
2023-02-21T00:07:14.870Z,100137.19
2023-02-21T00:09:59.664Z,100132.75
2023-02-21T00:12:45.155Z,100123.97
2023-02-21T00:15:30.525Z,100149.75
2023-02-21T00:18:15.827Z,100125.22
2023-02-21T00:21:00.578Z,100143.91
2023-02-21T00:23:45.413Z,100128.91
2023-02-21T00:26:30.467Z,100135.16
2023-02-21T00:29:15.277Z,100136.81
2023-02-21T00:32:00.300Z,100131.53
2023-02-21T00:34:45.120Z,100187.41
2023-02-21T00:37:30.126Z,100124.41
2023-02-21T00:40:15.193Z,100143.75
2023-02-21T00:43:00.090Z,100130.72
2023-02-21T00:45:44.760Z,100117.34
2023-02-21T00:48:29.741Z,100125.16
2023-02-21T00:51:14.948Z,100111.84
2023-02-21T00:54:00.462Z,100121.66
2023-02-21T00:56:45.405Z,100138.38
2023-02-21T00:59:32.018Z,100123.47
2023-02-21T01:02:16.791Z,100089.88
2023-02-21T01:05:01.752Z,100087.97
2023-02-21T01:07:46.613Z,100107.59
2023-02-21T01:10:31.439Z,100106.25
2023-02-21T01:13:16.651Z,100052.03
2023-02-21T01:16:03.066Z,100097.56
2023-02-21T01:18:48.359Z,100084.19
2023-02-21T01:21:35.698Z,100079.75
2023-02-21T01:24:21.039Z,100106.06
2023-02-21T01:27:06.265Z,100081.44
2023-02-21T01:29:51.113Z,100087.59
2023-02-21T01:32:36.419Z,100058.38
2023-02-21T01:35:22.126Z,100073.09
2023-02-21T01:38:06.871Z,100079.25
2023-02-21T01:40:52.094Z,100086.53
2023-02-21T01:43:40.511Z,100083.97
2023-02-21T01:46:33.518Z,100063.59
2023-02-21T01:49:22.977Z,100089.25
2023-02-21T01:52:08.157Z,100065.38
2023-02-21T01:54:58.436Z,100077.00
2023-02-21T01:57:44.368Z,100075.75
2023-02-21T02:00:32.258Z,100081.03
2023-02-21T02:03:21.648Z,100058.00
2023-02-21T02:06:09.924Z,100061.47
2023-02-21T02:08:56.412Z,100068.56
2023-02-21T02:11:59.863Z,100066.75
2023-02-21T02:14:32.080Z,100057.81
2023-02-21T02:17:03.602Z,100041.97
2023-02-21T02:19:55.507Z,100063.72
2023-02-21T02:22:53.058Z,100017.19
2023-02-21T02:25:34.652Z,100031.06
2023-02-21T02:28:20.419Z,100041.53
2023-02-21T02:31:08.449Z,100050.31
2023-02-21T02:33:54.289Z,100045.56
2023-02-21T02:36:36.121Z,100032.25
2023-02-21T02:39:09.936Z,100034.78
2023-02-21T02:41:48.283Z,100045.56
2023-02-21T02:44:22.661Z,100035.75
2023-02-21T02:46:51.031Z,100058.88
2023-02-21T02:49:22.135Z,100056.81
2023-02-21T02:51:49.604Z,100035.75
2023-02-21T02:54:16.141Z,100019.03
2023-02-21T02:56:43.054Z,100020.94
2023-02-21T02:59:13.163Z,100022.75
2023-02-21T03:01:48.591Z,100048.44
2023-02-21T03:04:27.200Z,100025.47
2023-02-21T03:06:59.900Z,100032.66
2023-02-21T03:09:43.795Z,100023.75
2023-02-21T03:12:16.781Z,100014.16
2023-02-21T03:15:09.102Z,100036.88
2023-02-21T03:17:42.581Z,100025.47
2023-02-21T03:20:11.877Z,100003.38
2023-02-21T03:22:38.606Z,100052.66
2023-02-21T03:25:05.683Z,100018.91
2023-02-21T03:27:33.643Z,100019.13
2023-02-21T03:30:04.300Z,100012.78
2023-02-21T03:32:35.751Z,100009.22
2023-02-21T03:35:02.385Z,99990.59
2023-02-21T03:37:33.700Z,100032.88
2023-02-21T03:40:00.526Z,100011.63
2023-02-21T03:42:27.048Z,100011.44
2023-02-21T03:44:53.618Z,100045.06
2023-02-21T03:47:20.293Z,99988.50
2023-02-21T03:49:47.025Z,100021.91
2023-02-21T03:52:13.765Z,100014.09
2023-02-21T03:54:41.318Z,100022.13
2023-02-21T03:57:08.267Z,100024.53
2023-02-21T03:59:34.931Z,100027.84
2023-02-21T04:02:01.770Z,100028.69
2023-02-21T04:04:28.286Z,100016.53
2023-02-21T04:06:54.833Z,100012.06
2023-02-21T04:09:21.447Z,100027.00
2023-02-21T04:11:47.967Z,100023.38
2023-02-21T04:14:14.618Z,100029.00
2023-02-21T04:16:42.240Z,100017.56
2023-02-21T04:19:08.823Z,100033.22
2023-02-21T04:21:35.375Z,100015.78
2023-02-21T04:24:02.331Z,100031.31
2023-02-21T04:26:30.105Z,100031.53
2023-02-21T04:28:56.733Z,100022.47
2023-02-21T04:31:23.634Z,100009.44
2023-02-21T04:33:54.881Z,100031.09
2023-02-21T04:36:26.914Z,100025.28
2023-02-21T04:38:53.615Z,100021.72
2023-02-21T04:41:20.837Z,100008.81
2023-02-21T04:43:47.412Z,100011.53
2023-02-21T04:46:17.751Z,100013.78
2023-02-21T04:48:45.814Z,100025.09
2023-02-21T04:51:16.218Z,100004.22
2023-02-21T04:53:43.702Z,100019.16
2023-02-21T04:56:11.117Z,100017.16
2023-02-21T04:58:45.213Z,100031.00
2023-02-21T05:01:13.455Z,100003.94
2023-02-21T05:03:40.211Z,100024.03
2023-02-21T05:06:06.792Z,100019.06
2023-02-21T05:08:33.346Z,100006.38
2023-02-21T05:10:59.935Z,100021.59
2023-02-21T05:13:26.853Z,100001.00
2023-02-21T05:15:53.395Z,100010.69
2023-02-21T05:18:23.336Z,100023.91
2023-02-21T05:20:50.322Z,100003.50
2023-02-21T05:23:18.960Z,99991.25
2023-02-21T05:25:45.847Z,99984.25
2023-02-21T05:28:12.463Z,99988.38
2023-02-21T05:30:39.082Z,99981.59
2023-02-21T05:33:05.684Z,99987.63
2023-02-21T05:35:32.226Z,100000.78
2023-02-21T05:37:58.754Z,100006.06
2023-02-21T05:40:25.275Z,100008.78
2023-02-21T05:42:51.843Z,99985.75
2023-02-21T05:45:18.619Z,100045.72
2023-02-21T05:47:45.150Z,100041.28
2023-02-21T05:50:11.663Z,100009.75
2023-02-21T05:52:38.724Z,100028.28
2023-02-21T05:55:05.571Z,100026.56
2023-02-21T05:57:38.445Z,100045.19
2023-02-21T06:00:05.576Z,100027.84
2023-02-21T06:02:32.115Z,100032.16
2023-02-21T06:04:58.631Z,100033.88
2023-02-21T06:07:25.259Z,100048.59
2023-02-21T06:09:51.810Z,100033.75
2023-02-21T06:12:18.351Z,100036.31
2023-02-21T06:14:44.868Z,100060.19
2023-02-21T06:17:11.403Z,100065.78
2023-02-21T06:19:37.908Z,100047.84
2023-02-21T06:22:04.472Z,100062.53
2023-02-21T06:24:30.988Z,100050.56
2023-02-21T06:26:57.516Z,100040.09
2023-02-21T06:29:24.024Z,100098.38
2023-02-21T06:31:50.612Z,100053.22
2023-02-21T06:34:17.174Z,100047.94
2023-02-21T06:36:43.701Z,100055.78
2023-02-21T06:39:10.816Z,100047.72
2023-02-21T06:41:37.421Z,100077.56
2023-02-21T06:44:04.089Z,100081.81
2023-02-21T06:46:30.953Z,100051.66
2023-02-21T06:48:58.195Z,100069.31
2023-02-21T06:51:29.750Z,100069.44
2023-02-21T06:53:58.034Z,100092.09
2023-02-21T06:56:24.618Z,100056.81
2023-02-21T06:58:51.172Z,100084.34
2023-02-21T07:01:17.977Z,100102.84
2023-02-21T07:03:46.173Z,100102.66
2023-02-21T07:06:12.769Z,100088.28
2023-02-21T07:08:39.420Z,100097.91
2023-02-21T07:11:06.403Z,100105.00
2023-02-21T07:13:33.798Z,100096.75
2023-02-21T07:16:01.216Z,100111.78
2023-02-21T07:18:27.947Z,100127.34
2023-02-21T07:20:54.613Z,100109.22
2023-02-21T07:23:21.252Z,100114.13
2023-02-21T07:25:47.766Z,100099.72
2023-02-21T07:28:15.019Z,100119.19
2023-02-21T07:30:41.894Z,100133.69
2023-02-21T07:33:08.569Z,100106.78
2023-02-21T07:35:35.082Z,100134.75
2023-02-21T07:38:01.666Z,100127.78
2023-02-21T07:40:28.249Z,100124.38
2023-02-21T07:42:55.306Z,100141.19
2023-02-21T07:45:21.923Z,100175.69
2023-02-21T07:47:51.001Z,100130.50
2023-02-21T07:50:17.856Z,100140.34
2023-02-21T07:52:45.618Z,100143.66
2023-02-21T07:55:13.468Z,100141.09
2023-02-21T07:57:40.127Z,100126.72
2023-02-21T08:00:07.273Z,100147.78
2023-02-21T08:02:33.886Z,100155.16
2023-02-21T08:05:00.465Z,100137.78
2023-02-21T08:07:27.051Z,100157.28
2023-02-21T08:09:53.526Z,100146.59
2023-02-21T08:12:20.050Z,100149.34
2023-02-21T08:14:46.622Z,100161.72
2023-02-21T08:17:14.155Z,100140.44
2023-02-21T08:19:40.931Z,100154.53
2023-02-21T08:22:07.493Z,100155.59
2023-02-21T08:24:34.082Z,100170.50
2023-02-21T08:27:00.623Z,100156.22
2023-02-21T08:29:27.230Z,100158.25
2023-02-21T08:31:53.793Z,100151.03
2023-02-21T08:34:20.361Z,100159.84
2023-02-21T08:36:46.939Z,100151.03
2023-02-21T08:39:15.096Z,100145.72
2023-02-21T08:41:44.926Z,100130.28
2023-02-21T08:44:13.377Z,100170.28
2023-02-21T08:46:40.856Z,100165.28
2023-02-21T08:49:07.868Z,100153.63
2023-02-21T08:51:35.361Z,100174.72
2023-02-21T08:54:03.293Z,100180.78
2023-02-21T08:56:30.845Z,100160.44
2023-02-21T08:58:57.878Z,100127.81
2023-02-21T09:01:30.688Z,100157.50
2023-02-21T09:03:57.283Z,100180.59
2023-02-21T09:06:23.905Z,100153.28
2023-02-21T09:08:50.822Z,100148.69
2023-02-21T09:11:17.483Z,100167.22
2023-02-21T09:13:44.109Z,100150.50
2023-02-21T09:16:10.731Z,100162.34
2023-02-21T09:18:37.287Z,100157.06
2023-02-21T09:21:04.032Z,100162.81
2023-02-21T09:23:33.402Z,100205.19
2023-02-21T09:25:59.998Z,100167.47
2023-02-21T09:28:26.685Z,100175.72
2023-02-21T09:30:53.261Z,100168.94
2023-02-21T09:33:19.852Z,100171.91
2023-02-21T09:35:46.507Z,100158.53
2023-02-21T09:38:13.055Z,100159.19
2023-02-21T09:40:39.555Z,100156.84
2023-02-21T09:43:12.250Z,100165.50
2023-02-21T09:45:38.977Z,100159.19
2023-02-21T09:48:14.623Z,100167.41
2023-02-21T09:50:51.662Z,100171.63
2023-02-21T09:53:34.853Z,100176.19
2023-02-21T09:56:07.688Z,100165.47
2023-02-21T09:58:35.922Z,100182.75
2023-02-21T10:01:08.967Z,100184.47
2023-02-21T10:04:01.886Z,100188.25
2023-02-21T10:06:44.603Z,100186.31
2023-02-21T10:09:26.022Z,100189.88
2023-02-21T10:11:59.529Z,100184.66
2023-02-21T10:14:50.855Z,100184.25
2023-02-21T10:17:25.330Z,100180.38
2023-02-21T10:20:00.591Z,100194.31
2023-02-21T10:22:32.313Z,100176.47
2023-02-21T10:24:59.688Z,100185.19
2023-02-21T10:27:33.332Z,100201.41
2023-02-21T10:30:18.081Z,100190.22
2023-02-21T10:32:44.759Z,100207.88
2023-02-21T10:35:11.662Z,100197.28
2023-02-21T10:37:46.978Z,100197.94
2023-02-21T10:40:19.768Z,100212.75
2023-02-21T10:42:54.485Z,100193.03
2023-02-21T10:45:29.899Z,100198.34
2023-02-21T10:48:06.740Z,100209.44
2023-02-21T10:50:42.082Z,100213.91
2023-02-21T10:53:21.520Z,100211.78
2023-02-21T10:56:15.946Z,100194.66
2023-02-21T10:58:55.800Z,100201.66
2023-02-21T11:01:44.258Z,100203.41
2023-02-21T11:04:19.837Z,100212.63
2023-02-21T11:06:50.960Z,100199.31
2023-02-21T11:09:30.877Z,100188.97
2023-02-21T11:12:21.580Z,100220.63
2023-02-21T11:14:51.048Z,100207.28
2023-02-21T11:17:35.726Z,100196.78
2023-02-21T11:20:09.139Z,100210.22
2023-02-21T11:22:42.506Z,100192.75
2023-02-21T11:25:12.075Z,100222.53
2023-02-21T11:27:39.430Z,100198.16
2023-02-21T11:30:20.830Z,100192.63
2023-02-21T11:32:56.670Z,100207.56
2023-02-21T11:35:23.679Z,100201.34
2023-02-21T11:38:05.577Z,100187.25
2023-02-21T11:40:43.366Z,100200.91
2023-02-21T11:43:33.554Z,100222.31
2023-02-21T11:46:17.681Z,100186.50
2023-02-21T11:48:47.242Z,100197.09
2023-02-21T11:51:26.614Z,100193.38
2023-02-21T11:53:53.715Z,100217.56
2023-02-21T11:56:35.965Z,100208.63
2023-02-21T11:59:26.569Z,100205.38
2023-02-21T12:02:24.362Z,100174.50
2023-02-21T12:05:15.758Z,100195.41
2023-02-21T12:08:14.897Z,100220.63
2023-02-21T12:10:48.708Z,100177.59
2023-02-21T12:13:33.502Z,100192.97
2023-02-21T12:16:11.997Z,100176.44
2023-02-21T12:18:44.745Z,100183.53
2023-02-21T12:21:21.038Z,100187.34
2023-02-21T12:24:05.963Z,100188.00
2023-02-21T12:26:47.478Z,100183.09
2023-02-21T12:30:04.115Z,100180.53
2023-02-21T12:32:50.143Z,100191.66
2023-02-21T12:35:38.214Z,100190.91
2023-02-21T12:38:19.958Z,100179.81
2023-02-21T12:40:53.287Z,100172.59
2023-02-21T12:43:30.580Z,100180.31
2023-02-21T12:46:16.957Z,100159.56
2023-02-21T12:48:45.813Z,100162.50
2023-02-21T12:51:19.702Z,100155.50
2023-02-21T12:53:55.244Z,100163.50
2023-02-21T12:56:37.889Z,100160.53
2023-02-21T12:59:28.376Z,100167.97
2023-02-21T13:02:02.142Z,100154.84
2023-02-21T13:04:38.131Z,100152.81
2023-02-21T13:07:25.560Z,100141.88
2023-02-21T13:09:52.150Z,100163.94
2023-02-21T13:12:28.256Z,100141.47
2023-02-21T13:15:15.713Z,100139.66
2023-02-21T13:17:44.757Z,100144.88
2023-02-21T13:20:19.578Z,100151.56
2023-02-21T13:23:23.599Z,100138.44
2023-02-21T13:26:01.256Z,100146.09
2023-02-21T13:28:36.507Z,100161.19
2023-02-21T13:31:06.316Z,100128.75
2023-02-21T13:33:45.589Z,100120.28
2023-02-21T13:36:27.415Z,100134.72
2023-02-21T13:38:59.467Z,100117.00
2023-02-21T13:41:29.456Z,100125.63
2023-02-21T13:43:57.666Z,100136.97
2023-02-21T13:46:30.480Z,100126.47
2023-02-21T13:49:34.567Z,100126.16
2023-02-21T13:52:19.459Z,100125.13
2023-02-21T13:55:20.441Z,100134.03
2023-02-21T13:58:08.680Z,100131.81
2023-02-21T14:00:35.230Z,100130.44
2023-02-21T14:03:28.512Z,100138.59
2023-02-21T14:05:55.029Z,100132.22
2023-02-21T14:08:46.326Z,100144.28
2023-02-21T14:11:22.517Z,100135.09
2023-02-21T14:13:54.946Z,100142.41
2023-02-21T14:16:53.938Z,100139.97
2023-02-21T14:19:23.388Z,100140.47
2023-02-21T14:21:56.394Z,100145.38
2023-02-21T14:24:26.449Z,100127.97
2023-02-21T14:26:52.928Z,100130.72
2023-02-21T14:29:30.428Z,100129.88
2023-02-21T14:32:01.109Z,100133.50
2023-02-21T14:34:54.422Z,100132.53
2023-02-21T14:37:44.244Z,100124.97
2023-02-21T14:40:34.974Z,100126.56
2023-02-21T14:43:20.282Z,100134.09
2023-02-21T14:46:24.491Z,100128.53
2023-02-21T14:48:59.110Z,100133.50
2023-02-21T14:51:57.149Z,100132.44
2023-02-21T14:54:47.256Z,100119.91
2023-02-21T14:57:22.556Z,100140.88
2023-02-21T15:00:01.318Z,100131.34
2023-02-21T15:02:42.690Z,100134.31
2023-02-21T15:05:20.368Z,100127.22
2023-02-21T15:08:05.888Z,100121.81
2023-02-21T15:10:40.075Z,100132.84
2023-02-21T15:13:06.720Z,100122.16
2023-02-21T15:15:38.485Z,100123.09
2023-02-21T15:18:08.778Z,100123.66
2023-02-21T15:20:38.510Z,100128.97
2023-02-21T15:23:21.139Z,100127.16
2023-02-21T15:25:56.562Z,100129.06
2023-02-21T15:28:33.255Z,100135.84
2023-02-21T15:31:06.607Z,100125.56
2023-02-21T15:33:44.007Z,100141.78
2023-02-21T15:36:21.728Z,100138.19
2023-02-21T15:39:06.260Z,100143.28
2023-02-21T15:41:44.158Z,100133.63
2023-02-21T15:44:35.645Z,100139.56
2023-02-21T15:47:11.509Z,100141.66
2023-02-21T15:49:52.101Z,100170.72
2023-02-21T15:52:30.755Z,100158.22
2023-02-21T15:55:28.545Z,100163.28
2023-02-21T15:58:07.218Z,100144.44
2023-02-21T16:00:35.024Z,100149.84
2023-02-21T16:03:29.797Z,100157.88
2023-02-21T16:06:15.246Z,100144.66
2023-02-21T16:08:58.972Z,100146.78
2023-02-21T16:11:49.343Z,100157.38
2023-02-21T16:14:41.016Z,100160.25
2023-02-21T16:17:07.528Z,100171.59
2023-02-21T16:19:34.490Z,100164.50
2023-02-21T16:22:59.522Z,100184.84
2023-02-21T16:25:25.681Z,100164.25
2023-02-21T16:27:55.913Z,100163.84
2023-02-21T16:30:27.371Z,100168.50
2023-02-21T16:32:59.702Z,100166.41
2023-02-21T16:35:27.651Z,100169.38
2023-02-21T16:37:57.087Z,100168.63
2023-02-21T16:40:25.245Z,100177.94
2023-02-21T16:42:53.477Z,100185.44
2023-02-21T16:45:21.185Z,100175.09
2023-02-21T16:47:49.891Z,100170.53
2023-02-21T16:50:20.686Z,100175.41
2023-02-21T16:52:47.526Z,100186.00
2023-02-21T16:55:16.880Z,100177.63
2023-02-21T16:57:47.735Z,100176.44
2023-02-21T17:00:15.626Z,100180.06
2023-02-21T17:02:42.218Z,100173.38
2023-02-21T17:05:09.536Z,100174.53
2023-02-21T17:07:36.076Z,100185.44
2023-02-21T17:10:02.627Z,100188.66
2023-02-21T17:12:29.164Z,100185.34
2023-02-21T17:14:55.729Z,100186.31
2023-02-21T17:17:22.303Z,100191.50
2023-02-21T17:19:48.821Z,100197.00
2023-02-21T17:22:15.439Z,100207.63
2023-02-21T17:24:42.805Z,100204.41
2023-02-21T17:27:11.685Z,100205.28
2023-02-21T17:29:38.267Z,100202.81
2023-02-21T17:32:07.148Z,100204.63
2023-02-21T17:34:34.337Z,100206.03
2023-02-21T17:37:01.086Z,100203.47
2023-02-21T17:39:27.891Z,100207.19
2023-02-21T17:41:54.502Z,100209.94
2023-02-21T17:44:21.085Z,100208.34
2023-02-21T17:46:52.893Z,100212.78
2023-02-21T17:49:21.686Z,100210.16
2023-02-21T17:51:49.222Z,100208.44
2023-02-21T17:54:17.707Z,100213.28
2023-02-21T17:56:44.467Z,100220.47
2023-02-21T17:59:11.686Z,100210.03
2023-02-21T18:01:38.305Z,100221.53
2023-02-21T18:04:05.131Z,100220.63
2023-02-21T18:06:31.694Z,100216.50
2023-02-21T18:08:58.312Z,100217.25
2023-02-21T18:11:25.851Z,100217.75
2023-02-21T18:13:53.024Z,100220.28
2023-02-21T18:16:19.624Z,100223.38
2023-02-21T18:18:46.299Z,100220.72
2023-02-21T18:21:13.547Z,100230.56
2023-02-21T18:23:43.849Z,100240.91
2023-02-21T18:26:10.831Z,100234.78
2023-02-21T18:28:37.545Z,100241.66
2023-02-21T18:31:04.246Z,100251.00
2023-02-21T18:33:30.909Z,100236.72
2023-02-21T18:35:59.360Z,100244.53
2023-02-21T18:38:27.154Z,100238.47
2023-02-21T18:40:54.646Z,100238.47
2023-02-21T18:43:27.096Z,100235.84
2023-02-21T18:45:55.057Z,100239.53
2023-02-21T18:48:22.868Z,100249.38
2023-02-21T18:50:49.873Z,100242.38
2023-02-21T18:53:17.379Z,100243.38
2023-02-21T18:55:44.167Z,100244.22
2023-02-21T18:58:11.257Z,100238.25
2023-02-21T19:00:39.639Z,100238.56
2023-02-21T19:03:07.883Z,100237.22
2023-02-21T19:05:35.312Z,100247.38
2023-02-21T19:08:02.019Z,100241.00
2023-02-21T19:10:29.600Z,100244.50
2023-02-21T19:12:59.339Z,100243.34
2023-02-21T19:15:26.184Z,100245.69
2023-02-21T19:17:52.852Z,100243.38
2023-02-21T19:20:19.842Z,100247.53
2023-02-21T19:22:47.043Z,100250.84
2023-02-21T19:25:16.381Z,100247.22
2023-02-21T19:27:43.827Z,100253.44
2023-02-21T19:30:12.631Z,100252.00
2023-02-21T19:32:39.493Z,100250.31
2023-02-21T19:35:06.851Z,100253.97
2023-02-21T19:37:33.360Z,100255.78
2023-02-21T19:40:00.026Z,100263.94
2023-02-21T19:42:26.569Z,100267.25
2023-02-21T19:44:53.089Z,100272.06
2023-02-21T19:47:19.847Z,100276.69
2023-02-21T19:49:47.580Z,100274.13
2023-02-21T19:52:17.071Z,100279.94
2023-02-21T19:54:44.030Z,100281.69
2023-02-21T19:57:10.909Z,100282.56
2023-02-21T19:59:46.641Z,100285.09
2023-02-21T20:02:15.980Z,100281.22
2023-02-21T20:04:47.329Z,100274.63
2023-02-21T20:07:17.072Z,100284.34
2023-02-21T20:09:45.510Z,100282.81
2023-02-21T20:12:12.364Z,100290.31
2023-02-21T20:14:39.506Z,100293.03
2023-02-21T20:17:06.172Z,100298.84
2023-02-21T20:19:35.267Z,100291.34
2023-02-21T20:22:02.146Z,100294.84
2023-02-21T20:24:28.797Z,100291.81
2023-02-21T20:26:55.676Z,100290.59
2023-02-21T20:29:25.825Z,100288.88
2023-02-21T20:31:52.560Z,100289.31
2023-02-21T20:34:19.193Z,100295.13
2023-02-21T20:36:46.698Z,100292.50
2023-02-21T20:39:19.435Z,100294.09
2023-02-21T20:41:46.946Z,100290.03
2023-02-21T20:44:14.093Z,100301.03
2023-02-21T20:46:41.076Z,100286.25
2023-02-21T20:49:07.974Z,100285.25
2023-02-21T20:51:38.878Z,100288.19
2023-02-21T20:54:06.113Z,100284.41
2023-02-21T20:56:34.077Z,100288.19
2023-02-21T20:59:01.921Z,100294.22
2023-02-21T21:01:28.551Z,100285.91
2023-02-21T21:03:57.121Z,100287.50
2023-02-21T21:06:24.096Z,100287.22
2023-02-21T21:08:50.852Z,100281.94
2023-02-21T21:11:17.848Z,100285.53
2023-02-21T21:13:47.766Z,100283.19
2023-02-21T21:16:15.629Z,100296.97
2023-02-21T21:18:45.035Z,100285.53
2023-02-21T21:21:11.719Z,100291.75
2023-02-21T21:23:38.267Z,100284.13
2023-02-21T21:26:09.518Z,100287.72
2023-02-21T21:28:36.499Z,100290.75
2023-02-21T21:31:03.594Z,100291.50
2023-02-21T21:33:30.178Z,100294.22
2023-02-21T21:35:59.712Z,100290.00
2023-02-21T21:38:28.298Z,100285.38
2023-02-21T21:40:56.922Z,100289.69
2023-02-21T21:43:24.645Z,100287.13
2023-02-21T21:45:51.546Z,100295.19
2023-02-21T21:48:19.682Z,100296.88
2023-02-21T21:50:51.369Z,100290.38
2023-02-21T21:53:19.364Z,100293.69
2023-02-21T21:55:46.976Z,100293.47
2023-02-21T21:58:13.965Z,100294.34
2023-02-21T22:00:42.192Z,100291.03
2023-02-21T22:03:14.187Z,100290.94
2023-02-21T22:05:45.610Z,100290.94
2023-02-21T22:08:16.677Z,100292.63
2023-02-21T22:10:45.026Z,100295.09
2023-02-21T22:13:15.092Z,100293.22
2023-02-21T22:15:43.571Z,100292.94
2023-02-21T22:18:11.737Z,100301.72
2023-02-21T22:20:38.415Z,100303.97
2023-02-21T22:23:08.154Z,100299.63
2023-02-21T22:25:37.035Z,100300.19
2023-02-21T22:28:12.944Z,100300.69
2023-02-21T22:30:40.673Z,100303.91
2023-02-21T22:33:13.397Z,100299.63
2023-02-21T22:35:40.660Z,100300.09
2023-02-21T22:38:07.781Z,100307.09
2023-02-21T22:40:35.718Z,100305.47
2023-02-21T22:43:11.272Z,100308.78
2023-02-21T22:45:38.120Z,100300.09
2023-02-21T22:48:07.503Z,100305.50
2023-02-21T22:50:37.076Z,100299.56
2023-02-21T22:53:09.626Z,100299.47
2023-02-21T22:55:37.598Z,100307.00
2023-02-21T22:58:07.359Z,100302.28
2023-02-21T23:00:35.619Z,100306.34
2023-02-21T23:03:13.943Z,100308.69
2023-02-21T23:05:51.941Z,100302.09
2023-02-21T23:08:21.182Z,100295.59
2023-02-21T23:10:48.136Z,100298.63
2023-02-21T23:13:19.086Z,100298.31
2023-02-21T23:15:46.919Z,100292.47
2023-02-21T23:18:20.661Z,100293.34
2023-02-21T23:20:53.084Z,100298.16
2023-02-21T23:23:21.979Z,100295.38
2023-02-21T23:25:48.599Z,100296.22
2023-02-21T23:28:15.889Z,100293.22
2023-02-21T23:30:42.550Z,100297.38
2023-02-21T23:33:18.621Z,100297.00
2023-02-21T23:35:49.296Z,100290.13
2023-02-21T23:38:16.948Z,100297.28
2023-02-21T23:40:47.110Z,100289.34
2023-02-21T23:43:15.996Z,100286.81
2023-02-21T23:45:43.224Z,100294.16
2023-02-21T23:48:15.853Z,100287.72
2023-02-21T23:50:47.017Z,100294.13
2023-02-21T23:53:22.652Z,100298.44
2023-02-21T23:55:49.390Z,100304.03
2023-02-21T23:58:19.001Z,100294.78
